Data for 05/10/2008

Time Sea-Level Adjusted Pressure Absolute Pressure Temperature Relative Humidity Dew Point   
(mb) (inHg) (mb) (inHg) (C) (F) (%) (C) (F)
00:05 1019 30.09 849 25.07 0.8 33.5 164 7.9 46.2
00:10 1019 30.09 849 25.07 0.9 33.6 164 7.9 46.3
00:15 1020 30.12 849 25.07 0.9 33.6 164 7.9 46.3
00:20 1020 30.12 849 25.07 0.9 33.6 164 7.9 46.3
00:25 1020 30.12 849 25.07 0.9 33.5 164 7.9 46.2
00:30 1020 30.12 849 25.07 0.8 33.5 164 7.9 46.2
00:35 1020 30.12 849 25.07 0.8 33.5 164 7.9 46.1
00:40 1020 30.12 849 25.07 0.8 33.4 164 7.8 46.1
00:45 1020 30.12 849 25.07 0.7 33.3 164 7.7 45.9
00:50 1020 30.12 849 25.07 0.6 33 164 7.6 45.7
00:55 1020 30.12 849 25.07 0.5 32.9 164 7.5 45.5
01:00 1020 30.12 849 25.07 0.6 33.1 164 7.6 45.7
01:05 1020 30.12 849 25.07 0.8 33.4 164 7.8 46
01:10 1020 30.12 849 25.07 0.9 33.6 164 7.9 46.3
01:15 1020 30.12 849 25.07 1 33.8 164 8 46.4
01:20 1020 30.12 849 25.07 1 33.8 164 8 46.4
01:25 1020 30.12 849 25.07 1 33.7 164 8 46.4
01:30 1020 30.12 849 25.07 1 33.8 164 8.1 46.5
01:35 1020 30.12 849 25.07 1.1 34 164 8.2 46.7
01:40 1020 30.12 849 25.07 1 33.9 164 8.1 46.6
01:45 1020 30.12 849 25.07 0.9 33.6 164 8 46.3
01:50 1020 30.12 849 25.07 0.9 33.6 164 7.9 46.3
01:55 1020 30.12 849 25.07 1.1 33.9 164 8.1 46.6
02:00 1020 30.12 849 25.07 1.2 34.1 164 8.2 46.8
02:05 1020 30.12 849 25.07 1.1 33.9 164 8.1 46.6
02:10 1020 30.12 849 25.07 1 33.7 164 8 46.4
02:15 1020 30.12 849 25.07 0.9 33.7 164 8 46.3
02:20 1020 30.12 849 25.07 0.9 33.6 164 7.9 46.3
02:25 1020 30.12 849 25.07 0.9 33.6 164 8 46.3
02:30 1020 30.12 849 25.07 0.8 33.5 164 7.9 46.2
02:35 1020 30.12 849 25.07 0.8 33.4 164 7.8 46.1
02:40 1020 30.12 849 25.07 0.8 33.5 164 7.9 46.1
02:45 1020 30.12 849 25.07 0.9 33.6 164 7.9 46.3
02:50 1020 30.12 849 25.07 0.9 33.6 164 8 46.3
02:55 1020 30.12 849 25.07 1 33.8 164 8 46.5
03:00 1020 30.12 849 25.07 0.9 33.7 164 8 46.4
03:05 1020 30.12 849 25.07 0.9 33.7 164 8 46.4
03:10 1020 30.12 850 25.1 1 33.7 164 8 46.4
03:15 1020 30.12 850 25.1 1 33.8 164 8.1 46.5
03:20 1020 30.12 850 25.1 1.1 33.9 164 8.1 46.6
03:25 1020 30.12 850 25.1 1.1 34.1 164 8.2 46.8
03:30 1020 30.12 850 25.1 1.2 34.1 164 8.2 46.8
03:35 1020 30.12 850 25.1 1.2 34.2 164 8.3 46.9
03:40 1020 30.12 850 25.1 1.2 34.2 164 8.3 46.9
03:45 1020 30.12 850 25.1 1.3 34.3 164 8.3 47
03:50 1020 30.12 850 25.1 1.3 34.3 164 8.3 47
03:55 1021 30.15 850 25.1 1.3 34.3 164 8.4 47.1
04:00 1021 30.15 850 25.1 1.3 34.3 164 8.4 47.1
04:05 1021 30.15 850 25.1 1.3 34.3 164 8.4 47
04:10 1021 30.15 850 25.1 1.3 34.3 164 8.3 47
04:15 1021 30.15 850 25.1 1.3 34.3 164 8.3 47
04:20 1021 30.15 850 25.1 1.2 34.2 164 8.3 46.9
04:25 1021 30.15 850 25.1 1.2 34.1 164 8.2 46.8
04:30 1021 30.15 850 25.1 1.1 34 164 8.2 46.7
04:35 1021 30.15 850 25.1 1.1 33.9 164 8.1 46.6
04:40 1021 30.15 850 25.1 1.1 33.9 164 8.1 46.6
04:45 1021 30.15 850 25.1 1.1 33.9 164 8.1 46.6
04:50 1021 30.15 850 25.1 1.1 34 164 8.2 46.7
04:55 1021 30.15 850 25.1 1.1 33.9 164 8.1 46.6
05:00 1021 30.15 850 25.1 1.1 34 164 8.2 46.7
05:05 1021 30.15 850 25.1 1.1 34 164 8.2 46.7
05:10 1021 30.15 850 25.1 1.1 34 164 8.1 46.7
05:15 1021 30.15 850 25.1 1 33.8 164 8 46.5
05:20 1021 30.15 850 25.1 0.9 33.6 164 8 46.3
05:25 1021 30.15 850 25.1 1 33.7 148 6.5 43.6
05:30 1021 30.15 850 25.1 1.1 34 94 0.2 32.4
05:35 1021 30.15 850 25.1 1.1 34 93 0.1 32.2
05:40 1021 30.15 850 25.1 1.1 33.9 93 0 32.1
05:45 1021 30.15 850 25.1 1 33.8 93 0 32
05:50 1021 30.15 850 25.1 0.9 33.7 93 -0.1 31.8
05:55 1021 30.15 850 25.1 0.9 33.5 93 -0.1 31.7
06:00 1021 30.15 850 25.1 0.8 33.4 93 -0.2 31.6
06:05 1021 30.15 850 25.1 0.7 33.3 93 -0.3 31.5
06:10 1021 30.15 850 25.1 0.8 33.4 93 -0.3 31.5
06:15 1021 30.15 850 25.1 0.7 33.3 93 -0.3 31.5
06:20 1021 30.15 850 25.1 0.5 32.8 94 -0.4 31.3
06:25 1021 30.15 850 25.1 0.3 32.5 95 -0.5 31.1
06:30 1021 30.15 851 25.13 0.4 32.8 95 -0.3 31.4
06:35 1021 30.15 851 25.13 0.6 33.1 94 -0.2 31.6
06:40 1021 30.15 851 25.13 0.7 33.2 94 -0.2 31.6
06:45 1021 30.15 851 25.13 0.7 33.2 93 -0.3 31.4
06:50 1021 30.15 851 25.13 0.7 33.3 93 -0.3 31.4
06:55 1021 30.15 851 25.13 0.8 33.5 93 -0.2 31.6
07:00 1021 30.15 851 25.13 0.8 33.5 93 -0.2 31.7
07:05 1021 30.15 851 25.13 0.8 33.5 93 -0.2 31.6
07:10 1021 30.15 851 25.13 1 33.7 93 -0.1 31.9
07:15 1022 30.18 851 25.13 1.3 34.4 93 0.3 32.5
07:20 1022 30.18 851 25.13 1.8 35.2 91 0.5 32.9
07:25 1022 30.18 851 25.13 1.6 34.9 91 0.2 32.4
07:30 1022 30.18 851 25.13 1.7 35 90 0.2 32.4
07:35 1022 30.18 851 25.13 1.7 35 90 0.3 32.5
07:40 1022 30.18 851 25.13 1.9 35.5 88 0.2 32.3
07:45 1022 30.18 851 25.13 2.1 35.7 88 0.2 32.4
07:50 1022 30.18 851 25.13 2.4 36.3 84 0 32
07:55 1022 30.18 851 25.13 2.6 36.7 83 0.1 32.1
08:00 1022 30.18 851 25.13 3 37.4 82 0.2 32.4
08:05 1022 30.18 851 25.13 3.6 38.5 79 0.2 32.4
08:10 1022 30.18 851 25.13 3.9 39.1 76 0.1 32.1
08:15 1022 30.18 851 25.13 3.5 38.3 75 -0.5 31.2
08:20 1022 30.18 851 25.13 3.2 37.8 76 -0.7 30.8
08:25 1022 30.18 851 25.13 3.3 37.9 76 -0.5 31
08:30 1022 30.18 851 25.13 3.6 38.6 76 -0.2 31.7
08:35 1022 30.18 851 25.13 4.1 39.4 74 -0.1 31.8
08:40 1022 30.18 851 25.13 4.4 39.9 72 -0.2 31.6
08:45 1022 30.18 851 25.13 4.5 40 70 -0.6 30.9
08:50 1022 30.18 851 25.13 3.9 39.1 71 -0.8 30.5
08:55 1022 30.18 851 25.13 3.7 38.7 73 -0.7 30.7
09:00 1022 30.18 851 25.13 3.8 38.8 72 -0.9 30.5
09:05 1022 30.18 851 25.13 4 39.1 70 -1 30.1
09:10 1022 30.18 851 25.13 3.7 38.7 70 -1.3 29.7
09:15 1022 30.18 851 25.13 3.9 39 71 -1 30.3
09:20 1022 30.18 851 25.13 4.7 40.5 68 -0.7 30.7
09:25 1022 30.18 851 25.13 5.1 41.2 65 -0.9 30.3
09:30 1022 30.18 851 25.13 5.3 41.6 63 -1 30.1
09:35 1022 30.18 851 25.13 5.3 41.5 63 -1.1 30
09:40 1022 30.18 851 25.13 4.9 40.8 65 -1.2 29.8
09:45 1022 30.18 851 25.13 4.5 40.2 65 -1.4 29.5
09:50 1022 30.18 851 25.13 4.8 40.6 64 -1.5 29.3
09:55 1021 30.15 851 25.13 5.3 41.6 63 -1.2 29.9
10:00 1021 30.15 851 25.13 5.8 42.5 61 -1.2 29.9
10:05 1021 30.15 851 25.13 5.5 41.9 61 -1.4 29.4
10:10 1021 30.15 851 25.13 5.3 41.6 59 -1.9 28.5
10:15 1021 30.15 851 25.13 4.7 40.5 58 -2.8 27
10:20 1021 30.15 851 25.13 4.8 40.6 56 -3.3 26.1
10:25 1021 30.15 850 25.1 5.4 41.7 57 -2.4 27.8
10:30 1021 30.15 850 25.1 5.7 42.3 56 -2.3 27.8
10:35 1021 30.15 850 25.1 5.2 41.4 57 -2.5 27.5
10:40 1021 30.15 850 25.1 6 42.8 56 -2.2 28.1
10:45 1021 30.15 850 25.1 6.7 44 55 -1.6 29.2
10:50 1021 30.15 850 25.1 6.4 43.5 54 -2.2 28.1
10:55 1021 30.15 850 25.1 6.1 43 53 -2.8 27
11:00 1021 30.15 850 25.1 7.2 44.9 52 -2.1 28.3
11:05 1021 30.15 850 25.1 7.7 45.8 49 -2.3 27.9
11:10 1021 30.15 850 25.1 8.4 47 49 -1.7 29
11:15 1021 30.15 850 25.1 8.4 47.1 47 -2.3 27.8
11:20 1021 30.15 850 25.1 8.3 47 45 -3 26.5
11:25 1021 30.15 850 25.1 8.4 47.1 45 -2.9 26.9
11:30 1021 30.15 850 25.1 8.8 47.9 45 -2.3 27.9
11:35 1021 30.15 850 25.1 8.7 47.6 45 -2.7 27.2
11:40 1021 30.15 850 25.1 9.3 48.7 40 -3.7 25.4
11:45 1021 30.15 850 25.1 8.4 47.2 43 -3.5 25.6
11:50 1021 30.15 850 25.1 8.6 47.6 40 -4.2 24.5
11:55 1021 30.15 850 25.1 9 48.3 36 -5.1 22.9
12:00 1021 30.15 850 25.1 8.5 47.2 41 -4.1 24.6
12:05 1020 30.12 850 25.1 8.4 47.1 41 -3.9 24.9
12:10 1020 30.12 850 25.1 8.5 47.2 41 -4.1 24.5
12:15 1020 30.12 849 25.07 9.4 48.8 39 -3.7 25.3
12:20 1020 30.12 849 25.07 10.1 50.2 39 -3.1 26.4
12:25 1020 30.12 849 25.07 10.3 50.5 37 -3.7 25.3
12:30 1020 30.12 849 25.07 9.2 48.5 40 -3.7 25.4
12:35 1020 30.12 849 25.07 8.9 47.9 40 -3.9 25
12:40 1020 30.12 849 25.07 9.3 48.7 38 -4.1 24.5
12:45 1020 30.12 849 25.07 9.3 48.7 40 -3.5 25.8
12:50 1020 30.12 849 25.07 9.4 49 41 -3.2 26.3
12:55 1020 30.12 849 25.07 9.9 49.9 40 -3.1 26.4
13:00 1020 30.12 849 25.07 9.8 49.7 38 -3.6 25.4
13:05 1020 30.12 849 25.07 10 50.1 38 -3.5 25.7
13:10 1020 30.12 849 25.07 10.3 50.5 36 -3.9 25
13:15 1020 30.12 849 25.07 10.8 51.5 35 -4.1 24.6
13:20 1019 30.09 849 25.07 12 53.5 34 -3.6 25.6
13:25 1019 30.09 849 25.07 12.2 54 32 -4 24.7
13:30 1019 30.09 849 25.07 10.6 51.1 35 -4.1 24.7
13:35 1019 30.09 848 25.04 10.8 51.4 34 -4.3 24.2
13:40 1019 30.09 848 25.04 11 51.7 33 -4.7 23.5
13:45 1019 30.09 848 25.04 11.6 52.8 31 -4.9 23.1
13:50 1019 30.09 848 25.04 11.6 52.9 32 -4.7 23.5
13:55 1019 30.09 848 25.04 12 53.6 32 -4.2 24.5
14:00 1019 30.09 848 25.04 12.5 54.5 31 -3.9 25
14:05 1019 30.09 848 25.04 12.9 55.2 30 -4.1 24.6
14:10 1019 30.09 848 25.04 13.5 56.2 29 -4.4 24.1
14:15 1019 30.09 848 25.04 13.4 56 29 -4.1 24.7
14:20 1019 30.09 848 25.04 12.6 54.6 31 -4.2 24.4
14:25 1019 30.09 848 25.04 10.9 51.7 33 -4.8 23.3
14:30 1018 30.06 848 25.04 12.2 53.9 26 -6.7 20
14:35 1018 30.06 848 25.04 12.7 54.8 26 -6.1 21
14:40 1018 30.06 848 25.04 13 55.4 26 -6.2 20.9
14:45 1018 30.06 848 25.04 13.1 55.5 26 -6.1 21
14:50 1018 30.06 847 25.01 12.3 54.2 27 -6.1 21
14:55 1018 30.06 848 25.04 11.7 53 27 -6.6 20.2
15:00 1018 30.06 847 25.01 12.1 53.8 28 -6 21.2
15:05 1018 30.06 847 25.01 11.8 53.2 29 -5.5 22.1
15:10 1018 30.06 847 25.01 12.3 54.2 27 -6.1 21
15:15 1018 30.06 847 25.01 12.9 55.3 26 -6.1 21
15:20 1018 30.06 847 25.01 13.7 56.6 25 -5.8 21.5
15:25 1018 30.06 847 25.01 13.7 56.6 24 -6.3 20.7
15:30 1018 30.06 847 25.01 13.1 55.6 25 -6.2 20.8
15:35 1018 30.06 847 25.01 12.5 54.5 23 -8 17.7
15:40 1018 30.06 847 25.01 12.8 55 23 -7.7 18.1
15:45 1018 30.06 847 25.01 12.7 54.9 21 -8.8 16.1
15:50 1018 30.06 847 25.01 13.2 55.8 21 -8.4 16.9
15:55 1018 30.06 847 25.01 13 55.5 22 -8 17.6
16:00 1018 30.06 847 25.01 12.4 54.3 22 -8.7 16.4
16:05 1018 30.06 847 25.01 12.8 55 21 -8.9 16
16:10 1018 30.06 847 25.01 13 55.4 23 -7.5 18.5
16:15 1017 30.03 847 25.01 12.6 54.7 22 -8.5 16.8
16:20 1017 30.03 847 25.01 12.5 54.5 23 -7.9 17.7
16:25 1017 30.03 847 25.01 12.8 55 22 -8.4 16.8
16:30 1017 30.03 847 25.01 13.1 55.6 21 -8.6 16.5
16:35 1017 30.03 846 24.98 12.9 55.1 22 -8.6 16.5
16:40 1017 30.03 846 24.98 12.7 54.8 23 -8 17.7
16:45 1017 30.03 846 24.98 13 55.5 23 -7.6 18.4
16:50 1017 30.03 846 24.98 13.9 57 22 -7.2 19
16:55 1017 30.03 846 24.98 13.9 57.1 24 -6.2 20.9
17:00 1017 30.03 846 24.98 14 57.3 22 -7.1 19.3
17:05 1017 30.03 846 24.98 14.1 57.3 22 -7.6 18.4
17:10 1017 30.03 846 24.98 13.8 56.9 23 -6.9 19.6
17:15 1017 30.03 846 24.98 13.2 55.7 23 -7.7 18.1
17:20 1017 30.03 846 24.98 12.8 55 22 -8.1 17.3
17:25 1017 30.03 846 24.98 13 55.3 23 -7.7 18.1
17:30 1017 30.03 846 24.98 12.9 55.2 24 -7.2 19
17:35 1017 30.03 846 24.98 13.1 55.7 25 -6.3 20.7
17:40 1017 30.03 846 24.98 13.4 56.1 23 -7.1 19.3
17:45 1017 30.03 846 24.98 13.6 56.4 23 -7.2 19.1
17:50 1017 30.03 846 24.98 14.1 57.4 23 -6.8 19.7
17:55 1017 30.03 846 24.98 14 57.2 22 -7.1 19.2
18:00 1017 30.03 846 24.98 13.4 56.1 25 -6.3 20.7
18:05 1017 30.03 846 24.98 13.1 55.7 24 -6.9 19.5
18:10 1017 30.03 846 24.98 13.1 55.5 25 -6.4 20.5
18:15 1017 30.03 846 24.98 13.1 55.5 27 -5.6 22
18:20 1017 30.03 846 24.98 13.4 56.1 26 -5.6 21.9
18:25 1017 30.03 846 24.98 13.5 56.3 26 -5.6 21.9
18:30 1016 30 846 24.98 13.3 55.9 27 -5.3 22.4
18:35 1016 30 846 24.98 13.4 56.1 26 -5.5 22.2
18:40 1016 30 846 24.98 13.4 56.1 26 -5.8 21.6
18:45 1016 30 846 24.98 13.4 56.2 25 -6.1 21.1
18:50 1016 30 846 24.98 13.3 56 27 -5.4 22.3
18:55 1016 30 846 24.98 13.5 56.4 27 -5 23
19:00 1016 30 846 24.98 13.4 56.1 28 -4.7 23.5
19:05 1016 30 846 24.98 13.1 55.6 29 -4.4 24.1
19:10 1016 30 846 24.98 13 55.4 29 -4.4 24
19:15 1016 30 846 24.98 12.9 55.3 28 -4.9 23.2
19:20 1016 30 846 24.98 12.9 55.2 28 -4.9 23.1
19:25 1016 30 845 24.95 12.9 55.1 29 -4.6 23.8
19:30 1016 30 845 24.95 12.9 55.3 29 -4.7 23.5
19:35 1016 30 845 24.95 13 55.3 31 -3.6 25.4
19:40 1016 30 845 24.95 12.8 55.1 30 -4.1 24.6
19:45 1016 30 845 24.95 12.7 54.8 31 -4.1 24.6
19:50 1016 30 845 24.95 12.5 54.5 31 -4.3 24.3
19:55 1016 30 845 24.95 12.5 54.4 31 -4 24.8
20:00 1016 30 845 24.95 12.4 54.4 31 -4 24.7
20:05 1016 30 845 24.95 12.3 54.1 32 -3.8 25.1
20:10 1016 30 845 24.95 12.3 54.1 32 -3.9 24.9
20:15 1016 30 845 24.95 12.2 54 32 -4.1 24.7
20:20 1016 30 845 24.95 12.2 54 31 -4.2 24.5
20:25 1016 30 845 24.95 12.1 53.8 34 -3.3 26
20:30 1016 30 845 24.95 11.8 53.3 35 -3 26.6
20:35 1016 30 845 24.95 11.4 52.5 38 -2.5 27.6
20:40 1016 30 845 24.95 11 51.8 39 -2.5 27.6
20:45 1016 30 845 24.95 10.6 51.2 42 -1.7 29
20:50 1016 30 845 24.95 10.4 50.7 40 -2.6 27.4
20:55 1016 30 845 24.95 10.2 50.4 41 -2.3 27.9
21:00 1016 30 845 24.95 9.9 49.9 44 -1.8 28.7
21:05 1016 30 845 24.95 9.8 49.6 43 -2.2 28.1
21:10 1016 30 845 24.95 10.1 50.3 39 -3 26.6
21:15 1016 30 845 24.95 10.3 50.6 39 -2.9 26.8
21:20 1016 30 845 24.95 10.3 50.5 40 -2.6 27.3
21:25 1016 30 845 24.95 10.1 50.2 42 -2.3 27.8
21:30 1016 30 845 24.95 9.9 49.8 42 -2.3 27.8
21:35 1016 30 845 24.95 9.7 49.5 43 -2.1 28.2
21:40 1016 30 845 24.95 9.6 49.3 43 -2.3 27.9
21:45 1016 30 845 24.95 9.6 49.2 44 -2.1 28.2
21:50 1016 30 845 24.95 9.5 49.1 44 -2.2 28.1
21:55 1016 30 845 24.95 9.2 48.6 44 -2.2 28
22:00 1016 30 845 24.95 9.1 48.3 47 -1.7 28.9
22:05 1016 30 845 24.95 8.9 48.1 45 -2.4 27.8
22:10 1016 30 845 24.95 9.2 48.5 44 -2.3 27.8
22:15 1016 30 845 24.95 9.3 48.7 44 -2.4 27.7
22:20 1016 30 845 24.95 9.3 48.7 46 -1.8 28.8
22:25 1016 30 845 24.95 9 48.1 46 -1.9 28.6
22:30 1016 30 845 24.95 9 48.2 46 -2.1 28.2
22:35 1016 30 845 24.95 9 48.1 46 -1.9 28.6
22:40 1016 30 845 24.95 8.9 48 46 -2 28.4
22:45 1016 30 845 24.95 8.5 47.4 47 -2 28.3
22:50 1016 30 845 24.95 8.4 47.2 48 -2.1 28.3
22:55 1016 30 845 24.95 8.3 46.9 48 -2.1 28.3
23:00 1016 30 845 24.95 8.2 46.8 48 -2.1 28.2
23:05 1016 30 845 24.95 8.2 46.8 48 -2.1 28.3
23:10 1016 30 845 24.95 8.3 46.9 47 -2.3 27.8
23:15 1016 30 845 24.95 8.3 46.9 47 -2.3 27.9
23:20 1016 30 845 24.95 8.3 46.9 46 -2.6 27.3
23:25 1016 30 845 24.95 8.3 46.9 48 -1.9 28.5
23:30 1016 30 845 24.95 8 46.3 48 -2.3 27.8
23:35 1016 30 845 24.95 8 46.4 49 -2.2 28.1
23:40 1015 29.97 845 24.95 8 46.5 48 -2.4 27.7
23:45 1015 29.97 845 24.95 8.1 46.5 47 -2.4 27.6
23:50 1015 29.97 845 24.95 8 46.4 47 -2.7 27.1
23:55 1015 29.97 844 24.92 8 46.3 46 -2.8 27
24:00 1015 29.97 844 24.92 8.1 46.6 45 -3 26.7